Time;durP1;ratioP1;P1;durP2;ratioP2;P2;SDS_P1;SDS_P2;PMS_P1;PMS_P2;Temp;Humidity;BMP_temperature;BMP_pressure;BME280_temperature;BME280_humidity;BME280_pressure;Samples;Min_cycle;Max_cycle;Signal;HPM_P1;HPM_P2
2020/12/19 00:02:09;;;;;;;2.13;1.10;;;15.50;64.80;;;;;;4935435;29;20294;-38
2020/12/19 00:04:35;;;;;;;2.03;1.50;;;15.50;64.80;;;;;;4935288;29;20032;-38
2020/12/19 00:07:00;;;;;;;1.83;1.30;;;15.50;64.90;;;;;;4935602;29;20024;-38
2020/12/19 00:09:36;;;;;;;2.28;1.20;;;15.60;65.00;;;;;;4935167;29;20566;-38
2020/12/19 00:12:03;;;;;;;3.63;1.48;;;15.40;64.90;;;;;;4935336;29;20046;-38
2020/12/19 00:14:28;;;;;;;2.22;1.05;;;15.40;64.90;;;;;;4935153;29;20142;-38
2020/12/19 00:16:54;;;;;;;2.85;1.10;;;15.40;64.90;;;;;;4935514;29;20493;-38
2020/12/19 00:19:19;;;;;;;2.08;1.10;;;15.40;64.90;;;;;;4935149;29;20095;-38
2020/12/19 00:21:45;;;;;;;1.92;1.38;;;15.40;64.90;;;;;;4935302;29;20028;-38
2020/12/19 00:24:12;;;;;;;1.42;1.20;;;15.40;65.00;;;;;;4935252;29;20049;-37
2020/12/19 00:26:40;;;;;;;1.40;1.30;;;15.40;65.00;;;;;;4935164;29;20060;-38
2020/12/19 00:29:08;;;;;;;1.60;1.27;;;15.40;65.00;;;;;;4935464;29;20027;-38
2020/12/19 00:31:34;;;;;;;1.95;1.35;;;15.40;65.00;;;;;;4935045;29;20024;-38
2020/12/19 00:34:00;;;;;;;1.63;1.40;;;15.30;64.90;;;;;;4935275;29;20028;-38
2020/12/19 00:36:26;;;;;;;2.40;1.30;;;15.40;65.00;;;;;;4935158;29;20028;-38
2020/12/19 00:38:52;;;;;;;1.23;1.10;;;15.40;65.00;;;;;;4917965;29;20020;-38
2020/12/19 00:41:19;;;;;;;1.20;1.10;;;15.30;65.00;;;;;;4935216;29;20064;-38
2020/12/19 00:43:45;;;;;;;2.08;1.20;;;15.30;65.00;;;;;;4935227;29;20087;-38
2020/12/19 00:46:15;;;;;;;1.20;1.10;;;15.30;65.00;;;;;;4935235;29;20055;-37
2020/12/19 00:48:41;;;;;;;1.65;1.20;;;15.30;64.90;;;;;;4934994;29;20474;-38
2020/12/19 00:51:15;;;;;;;2.13;1.25;;;15.30;65.00;;;;;;4935061;29;20108;-38
2020/12/19 00:53:45;;;;;;;2.92;1.17;;;15.20;65.00;;;;;;4935194;29;20122;-38
2020/12/19 00:56:21;;;;;;;1.90;1.13;;;15.30;65.00;;;;;;4935210;29;20023;-38
2020/12/19 00:58:54;;;;;;;1.65;1.52;;;15.20;64.90;;;;;;4936671;28;20445;-38
2020/12/19 01:01:22;;;;;;;1.38;1.15;;;15.20;65.00;;;;;;4934753;29;20126;-38
2020/12/19 01:03:48;;;;;;;1.65;1.30;;;15.30;65.00;;;;;;4935067;29;20024;-38
2020/12/19 01:06:18;;;;;;;2.33;1.27;;;15.20;65.00;;;;;;4934778;29;20035;-38
2020/12/19 01:08:46;;;;;;;3.30;1.30;;;15.20;65.00;;;;;;4937126;29;20042;-38
2020/12/19 01:11:14;;;;;;;1.50;1.40;;;15.20;65.00;;;;;;4938339;29;20023;-38
2020/12/19 01:13:40;;;;;;;1.67;1.50;;;15.20;65.00;;;;;;4938418;29;20370;-38
2020/12/19 01:16:06;;;;;;;3.60;1.45;;;15.20;65.10;;;;;;4938212;29;20467;-38
2020/12/19 01:18:31;;;;;;;1.90;1.25;;;15.00;65.00;;;;;;4938347;29;20034;-38
2020/12/19 01:20:57;;;;;;;2.15;1.45;;;15.10;65.00;;;;;;4938015;29;20051;-38
2020/12/19 01:23:22;;;;;;;1.77;1.45;;;15.10;65.00;;;;;;4938336;29;20463;-38
2020/12/19 01:25:48;;;;;;;1.70;1.30;;;15.10;65.00;;;;;;4937945;29;20083;-38
2020/12/19 01:28:14;;;;;;;1.40;1.30;;;15.10;65.00;;;;;;4938296;29;20023;-38
2020/12/19 01:30:39;;;;;;;1.23;1.13;;;15.10;65.00;;;;;;4938063;29;20352;-38
2020/12/19 01:33:05;;;;;;;1.63;1.48;;;15.10;65.00;;;;;;4938044;29;20414;-38
2020/12/19 01:35:30;;;;;;;2.50;1.50;;;15.10;65.00;;;;;;4938107;29;20384;-38
2020/12/19 01:37:56;;;;;;;2.33;1.60;;;15.10;65.00;;;;;;4937998;29;20046;-37
2020/12/19 01:40:21;;;;;;;1.42;1.30;;;15.10;65.00;;;;;;4937549;29;20042;-38
2020/12/19 01:42:47;;;;;;;1.50;1.30;;;15.10;65.10;;;;;;4937828;29;20032;-38
2020/12/19 01:45:12;;;;;;;1.88;1.65;;;15.30;65.20;;;;;;4937734;29;20493;-38
2020/12/19 01:47:38;;;;;;;2.05;1.70;;;15.10;65.10;;;;;;4937604;29;20024;-38
2020/12/19 01:50:07;;;;;;;2.03;1.83;;;15.10;65.10;;;;;;4937540;29;20019;-37
2020/12/19 01:52:35;;;;;;;2.13;1.45;;;15.00;65.00;;;;;;4937697;29;20030;-38
2020/12/19 01:55:02;;;;;;;1.80;1.60;;;15.00;65.00;;;;;;4937445;29;20043;-37
2020/12/19 01:57:37;;;;;;;1.52;1.42;;;15.00;65.00;;;;;;4939311;28;20122;-38
2020/12/19 02:00:03;;;;;;;1.58;1.40;;;15.00;65.00;;;;;;4937603;29;20063;-38
2020/12/19 02:02:28;;;;;;;1.48;1.38;;;15.00;65.00;;;;;;4937525;29;20047;-38
2020/12/19 02:04:54;;;;;;;1.67;1.17;;;15.10;65.10;;;;;;4937340;29;20016;-37
2020/12/19 02:07:21;;;;;;;2.40;1.45;;;15.00;65.00;;;;;;4937609;29;20161;-38
2020/12/19 02:09:47;;;;;;;1.67;1.58;;;15.00;65.00;;;;;;4937369;29;20019;-38
2020/12/19 02:12:13;;;;;;;1.83;1.58;;;15.00;65.00;;;;;;4937118;29;20020;-38
2020/12/19 02:14:38;;;;;;;1.25;1.15;;;14.90;65.00;;;;;;4937347;29;20374;-38
2020/12/19 02:17:09;;;;;;;2.22;1.50;;;15.00;65.10;;;;;;4937100;29;20027;-38
2020/12/19 02:19:37;;;;;;;1.67;1.58;;;14.90;65.00;;;;;;4936089;29;20035;-38
2020/12/19 02:22:05;;;;;;;1.65;1.55;;;14.90;65.00;;;;;;4937177;29;20024;-38
2020/12/19 02:24:31;;;;;;;1.60;1.50;;;14.90;65.00;;;;;;4937153;29;20032;-38
2020/12/19 02:26:58;;;;;;;1.83;1.48;;;14.80;64.90;;;;;;4936928;29;20478;-38
2020/12/19 02:29:26;;;;;;;2.10;1.60;;;14.90;65.00;;;;;;4937121;29;20034;-38
2020/12/19 02:31:53;;;;;;;1.92;1.75;;;14.90;65.00;;;;;;4936701;29;20024;-37
2020/12/19 02:34:19;;;;;;;1.38;1.27;;;14.90;65.10;;;;;;4937183;29;20050;-38
2020/12/19 02:36:45;;;;;;;2.53;1.60;;;14.90;65.00;;;;;;4936793;29;20023;-38
2020/12/19 02:39:11;;;;;;;1.95;1.60;;;14.90;65.00;;;;;;4937301;29;20032;-38
2020/12/19 02:41:42;;;;;;;1.75;1.40;;;14.90;65.00;;;;;;4936233;29;20490;-38
2020/12/19 02:44:11;;;;;;;1.60;1.50;;;14.80;65.00;;;;;;4936887;29;20050;-38
2020/12/19 02:46:36;;;;;;;1.85;1.58;;;14.90;65.00;;;;;;4936481;29;20027;-38
2020/12/19 02:49:03;;;;;;;2.63;1.95;;;14.80;65.00;;;;;;4936441;29;20040;-37
2020/12/19 02:51:28;;;;;;;1.58;1.48;;;14.80;65.00;;;;;;4936350;29;20024;-38
2020/12/19 02:53:54;;;;;;;1.80;1.70;;;14.90;65.00;;;;;;4936314;29;20494;-38
2020/12/19 02:56:20;;;;;;;2.28;1.50;;;14.80;65.00;;;;;;4936702;29;20067;-38
2020/12/19 02:58:47;;;;;;;1.50;1.40;;;14.80;65.00;;;;;;4937745;28;20521;-38
2020/12/19 03:01:14;;;;;;;2.00;1.75;;;14.80;65.10;;;;;;4936093;29;20163;-38
2020/12/19 03:03:41;;;;;;;1.77;1.50;;;14.50;64.90;;;;;;4936202;29;20559;-37
2020/12/19 03:06:07;;;;;;;1.50;1.40;;;14.60;64.90;;;;;;4935467;29;20547;-38
2020/12/19 03:08:33;;;;;;;2.22;1.20;;;14.80;65.10;;;;;;4936233;29;20031;-38
2020/12/19 03:11:00;;;;;;;1.70;1.60;;;14.80;65.10;;;;;;4935759;29;20479;-37
2020/12/19 03:13:28;;;;;;;1.92;1.65;;;14.70;65.10;;;;;;4936071;29;20475;-38
2020/12/19 03:15:54;;;;;;;1.70;1.60;;;14.80;65.10;;;;;;4935579;29;20050;-38
2020/12/19 03:18:21;;;;;;;1.30;1.20;;;14.20;64.70;;;;;;4936029;29;20660;-37
2020/12/19 03:20:47;;;;;;;1.90;1.60;;;14.70;65.00;;;;;;4935574;29;20067;-38
2020/12/19 03:23:14;;;;;;;1.63;1.50;;;14.70;65.00;;;;;;4935882;29;20082;-38
2020/12/19 03:25:40;;;;;;;1.42;1.33;;;14.70;64.90;;;;;;4936049;29;20478;-38
2020/12/19 03:28:08;;;;;;;1.88;1.50;;;14.70;64.90;;;;;;4934907;29;20475;-38
2020/12/19 03:30:35;;;;;;;1.70;1.60;;;15.00;65.10;;;;;;4935620;29;20495;-37
2020/12/19 03:33:02;;;;;;;1.92;1.65;;;14.70;65.00;;;;;;4935316;29;20505;-38
2020/12/19 03:35:28;;;;;;;2.13;1.48;;;14.50;64.90;;;;;;4935359;29;20571;-38
2020/12/19 03:37:55;;;;;;;3.28;2.08;;;14.70;65.00;;;;;;4935413;29;20479;-38
2020/12/19 03:40:28;;;;;;;1.70;1.60;;;14.70;65.00;;;;;;4935746;29;20024;-38
2020/12/19 03:43:01;;;;;;;1.73;1.52;;;14.70;65.10;;;;;;4935907;29;20040;-38
2020/12/19 03:45:28;;;;;;;1.95;1.67;;;14.90;65.20;;;;;;4935772;29;20466;-38
2020/12/19 03:47:54;;;;;;;1.95;1.63;;;14.70;65.00;;;;;;4935330;29;20478;-37
2020/12/19 03:50:21;;;;;;;2.17;1.67;;;14.70;65.00;;;;;;4935283;29;20506;-38
2020/12/19 03:52:48;;;;;;;1.65;1.48;;;14.60;65.00;;;;;;4935482;29;20501;-38
2020/12/19 03:55:15;;;;;;;1.60;1.40;;;14.60;65.00;;;;;;4935159;29;20098;-38
2020/12/19 03:57:42;;;;;;;1.70;1.50;;;14.60;65.00;;;;;;4937190;28;20046;-37
2020/12/19 04:00:08;;;;;;;1.85;1.73;;;14.70;65.10;;;;;;4935342;29;20550;-38
2020/12/19 04:02:36;;;;;;;1.42;1.33;;;14.70;65.10;;;;;;4935661;29;20015;-38
2020/12/19 04:05:07;;;;;;;1.63;1.40;;;14.60;65.10;;;;;;4918258;29;20901;-38
2020/12/19 04:07:33;;;;;;;2.83;1.70;;;14.60;65.10;;;;;;4935633;29;20076;-38
2020/12/19 04:10:00;;;;;;;1.48;1.38;;;14.60;65.10;;;;;;4935394;29;20099;-38
2020/12/19 04:12:26;;;;;;;1.45;1.35;;;14.60;65.10;;;;;;4935578;29;20047;-37
2020/12/19 04:14:53;;;;;;;1.88;1.45;;;14.60;65.10;;;;;;4934926;29;20495;-38
2020/12/19 04:17:20;;;;;;;3.05;1.50;;;14.60;65.10;;;;;;4917591;29;20474;-38
2020/12/19 04:19:46;;;;;;;1.73;1.40;;;14.60;65.10;;;;;;4935589;29;20083;-38
2020/12/19 04:22:13;;;;;;;1.52;1.42;;;14.50;65.00;;;;;;4935239;29;20482;-38
2020/12/19 04:24:39;;;;;;;1.30;1.20;;;14.70;65.20;;;;;;4934462;29;20086;-38
2020/12/19 04:27:05;;;;;;;2.15;1.60;;;14.60;65.20;;;;;;4935015;29;20052;-38
2020/12/19 04:29:31;;;;;;;1.38;1.27;;;14.50;65.10;;;;;;4934845;29;20067;-38
2020/12/19 04:31:59;;;;;;;1.65;1.20;;;14.50;65.10;;;;;;4935341;29;20470;-38
2020/12/19 04:34:26;;;;;;;2.95;1.40;;;14.60;65.10;;;;;;4935647;29;20042;-41
2020/12/19 04:36:55;;;;;;;1.67;1.40;;;14.60;65.10;;;;;;4935074;29;20292;-38
2020/12/19 04:39:21;;;;;;;1.30;1.20;;;14.50;65.00;;;;;;4935232;29;20534;-37
2020/12/19 04:41:48;;;;;;;1.63;1.45;;;14.50;65.00;;;;;;4935182;29;20031;-38
2020/12/19 04:44:17;;;;;;;1.70;1.50;;;14.50;65.10;;;;;;4938124;29;20479;-38
2020/12/19 04:46:44;;;;;;;2.10;1.60;;;14.20;64.90;;;;;;4938531;29;20475;-38
2020/12/19 04:49:11;;;;;;;2.28;1.75;;;14.50;65.10;;;;;;4937788;29;20471;-38
2020/12/19 04:51:39;;;;;;;1.58;1.40;;;14.50;65.10;;;;;;4921389;29;20554;-38
2020/12/19 04:54:07;;;;;;;1.95;1.38;;;14.50;65.10;;;;;;4938351;29;20059;-38
2020/12/19 04:56:34;;;;;;;1.58;1.35;;;14.50;65.10;;;;;;4938333;29;20039;-38
2020/12/19 04:59:03;;;;;;;1.70;1.50;;;14.50;65.10;;;;;;4939289;28;20487;-38
2020/12/19 05:01:30;;;;;;;2.05;1.48;;;14.50;65.10;;;;;;4937710;29;20509;-38
2020/12/19 05:03:56;;;;;;;1.25;1.10;;;14.50;65.20;;;;;;4937367;29;20566;-38
2020/12/19 05:06:25;;;;;;;1.30;1.20;;;14.50;65.10;;;;;;4936014;29;20024;-38
2020/12/19 05:08:53;;;;;;;1.60;1.50;;;14.50;65.10;;;;;;4937482;29;20501;-37
2020/12/19 05:11:21;;;;;;;1.27;1.10;;;14.40;65.00;;;;;;4938141;29;20486;-38
2020/12/19 05:13:53;;;;;;;1.33;1.23;;;14.40;65.00;;;;;;4938469;29;20030;-38
2020/12/19 05:16:20;;;;;;;2.28;1.50;;;14.10;64.90;;;;;;4938117;29;20487;-38
2020/12/19 05:18:47;;;;;;;1.35;1.10;;;14.40;65.10;;;;;;4938202;29;20494;-39
2020/12/19 05:21:15;;;;;;;1.75;1.65;;;14.50;65.10;;;;;;4937223;29;20547;-38
2020/12/19 05:23:43;;;;;;;1.30;1.20;;;14.60;65.20;;;;;;4938049;29;20483;-38
2020/12/19 05:26:14;;;;;;;1.52;1.42;;;14.40;65.10;;;;;;4937986;29;20498;-37
2020/12/19 05:28:43;;;;;;;1.25;1.15;;;14.40;65.10;;;;;;4937784;29;20558;-38
2020/12/19 05:31:11;;;;;;;1.60;1.50;;;14.40;65.20;;;;;;4937007;29;20024;-38
2020/12/19 05:33:41;;;;;;;1.30;1.17;;;14.40;65.20;;;;;;4937913;29;20031;-38
2020/12/19 05:36:17;;;;;;;1.48;1.38;;;14.40;65.20;;;;;;4938183;29;20066;-38
2020/12/19 05:38:44;;;;;;;2.70;1.23;;;14.40;65.20;;;;;;4937752;29;20502;-38
2020/12/19 05:41:12;;;;;;;1.50;1.40;;;14.30;65.10;;;;;;4937462;29;20537;-38
2020/12/19 05:43:50;;;;;;;1.35;1.25;;;14.20;65.10;;;;;;4937760;29;20497;-38
2020/12/19 05:46:37;;;;;;;1.40;1.30;;;14.40;65.20;;;;;;4937339;29;20387;-38
2020/12/19 05:49:06;;;;;;;1.90;1.45;;;14.40;65.20;;;;;;4937172;29;20554;-38
2020/12/19 05:51:34;;;;;;;1.70;1.60;;;14.40;65.20;;;;;;4937363;29;20374;-38
2020/12/19 05:54:06;;;;;;;1.50;1.40;;;14.40;65.20;;;;;;4936250;29;20039;-37
2020/12/19 05:56:40;;;;;;;1.40;1.30;;;14.30;65.10;;;;;;4937103;29;20610;-38
2020/12/19 05:59:13;;;;;;;2.10;1.30;;;14.40;65.20;;;;;;4939318;28;20498;-38
2020/12/19 06:01:42;;;;;;;1.67;1.50;;;14.20;65.10;;;;;;4937473;29;20487;-38
2020/12/19 06:04:10;;;;;;;1.95;1.65;;;14.40;65.20;;;;;;4937362;29;20046;-38
2020/12/19 06:06:41;;;;;;;1.77;1.60;;;14.40;65.30;;;;;;4937123;29;20038;-38
2020/12/19 06:09:09;;;;;;;1.67;1.58;;;14.40;65.30;;;;;;4937394;29;20566;-38
2020/12/19 06:11:50;;;;;;;1.50;1.40;;;14.40;65.20;;;;;;4937300;29;20026;-38
2020/12/19 06:14:20;;;;;;;1.45;1.30;;;14.30;65.20;;;;;;4936407;29;20546;-38
2020/12/19 06:16:48;;;;;;;;;;;14.20;65.10;;;;;;4937613;29;20047;-38
2020/12/19 06:19:17;;;;;;;1.50;1.40;;;14.40;65.30;;;;;;4937094;29;20365;-38
2020/12/19 06:21:58;;;;;;;1.23;1.13;;;14.40;65.30;;;;;;4919734;29;20509;-38
2020/12/19 06:24:43;;;;;;;;;;;14.50;65.30;;;;;;4936702;29;20502;-38
2020/12/19 06:27:30;;;;;;;1.75;1.50;;;14.50;65.30;;;;;;4936604;29;20434;-38
2020/12/19 06:29:57;;;;;;;1.52;1.42;;;14.50;65.30;;;;;;4920012;29;20340;-38
2020/12/19 06:32:26;;;;;;;1.30;1.08;;;14.60;65.30;;;;;;4936935;29;20475;-38
2020/12/19 06:35:01;;;;;;;1.52;1.27;;;14.60;65.20;;;;;;4936779;29;20505;-38
2020/12/19 06:37:29;;;;;;;1.75;1.65;;;14.60;65.20;;;;;;4936629;29;20557;-38
2020/12/19 06:40:12;;;;;;;1.65;1.38;;;14.80;65.20;;;;;;4936679;29;20027;-37
2020/12/19 06:42:40;;;;;;;1.80;1.35;;;14.70;65.00;;;;;;4936349;29;20555;-38
2020/12/19 06:45:30;;;;;;;3.03;1.35;;;14.90;65.20;;;;;;4936485;29;20028;-38
2020/12/19 06:47:57;;;;;;;2.03;1.25;;;14.70;65.10;;;;;;4936588;29;20034;-38
2020/12/19 06:50:25;;;;;;;2.03;1.50;;;14.70;65.20;;;;;;4919538;29;20550;-37
2020/12/19 06:52:53;;;;;;;1.40;1.30;;;14.70;65.10;;;;;;4936526;29;20028;-38
2020/12/19 06:55:22;;;;;;;2.15;1.35;;;14.70;65.10;;;;;;4936491;29;20479;-38
2020/12/19 06:57:52;;;;;;;1.85;1.50;;;14.80;65.10;;;;;;4938159;28;20083;-38
2020/12/19 07:00:23;;;;;;;1.50;1.40;;;14.60;65.00;;;;;;4936439;29;20541;-38
2020/12/19 07:02:58;;;;;;;1.88;1.50;;;14.50;65.00;;;;;;4936336;29;20619;-38
2020/12/19 07:05:33;;;;;;;1.38;1.27;;;14.60;65.20;;;;;;4935383;29;20521;-38
2020/12/19 07:08:23;;;;;;;1.40;1.30;;;14.60;65.20;;;;;;4936145;29;20479;-38
2020/12/19 07:10:50;;;;;;;2.63;1.50;;;14.60;65.20;;;;;;4936472;29;20046;-37
2020/12/19 07:13:17;;;;;;;1.33;1.23;;;14.60;65.30;;;;;;4935937;29;20019;-38
2020/12/19 07:15:51;;;;;;;1.65;1.33;;;14.70;65.40;;;;;;4936250;29;20509;-38
2020/12/19 07:18:34;;;;;;;1.88;1.67;;;14.50;65.30;;;;;;4936267;29;20020;-38
2020/12/19 07:21:09;;;;;;;1.73;1.63;;;14.50;65.30;;;;;;4935886;29;20484;-38
2020/12/19 07:23:39;;;;;;;1.40;1.30;;;14.30;65.20;;;;;;4935989;29;20479;-38
2020/12/19 07:26:06;;;;;;;1.95;1.38;;;14.40;65.40;;;;;;4935685;29;20500;-37
2020/12/19 07:28:33;;;;;;;1.60;1.50;;;14.50;65.60;;;;;;4935324;29;20043;-38
2020/12/19 07:31:02;;;;;;;1.65;1.55;;;14.50;65.60;;;;;;4935655;29;20554;-37
2020/12/19 07:33:28;;;;;;;1.55;1.45;;;14.50;65.70;;;;;;4936004;29;20186;-38
2020/12/19 07:35:57;;;;;;;2.00;1.55;;;14.50;65.70;;;;;;4935649;29;20042;-37
2020/12/19 07:38:23;;;;;;;2.35;1.38;;;14.50;65.80;;;;;;4935740;29;20521;-38
2020/12/19 07:40:54;;;;;;;1.70;1.60;;;14.30;65.70;;;;;;4936134;29;20055;-38
2020/12/19 07:43:22;;;;;;;2.10;1.50;;;14.50;66.00;;;;;;4935614;29;20479;-38
2020/12/19 07:45:55;;;;;;;3.10;1.58;;;14.50;65.90;;;;;;4935318;29;20554;-38
2020/12/19 07:48:23;;;;;;;2.10;1.40;;;14.50;66.20;;;;;;4935861;29;20027;-38
2020/12/19 07:50:50;;;;;;;1.30;1.20;;;14.50;66.10;;;;;;4935488;29;20363;-38
2020/12/19 07:53:16;;;;;;;2.35;1.88;;;14.60;66.70;;;;;;4934873;29;20024;-38
2020/12/19 07:55:49;;;;;;;1.42;1.33;;;14.60;66.70;;;;;;4935324;29;20119;-38
2020/12/19 07:58:20;;;;;;;5.45;1.98;;;14.70;66.80;;;;;;4936798;28;20590;-38
2020/12/19 08:00:46;;;;;;;2.25;1.38;;;14.70;66.50;;;;;;4935269;29;20485;-38
2020/12/19 08:05:53;;;;;;;2.20;1.70;;;13.40;65.90;;;;;;4896093;29;20071;-37
2020/12/19 08:08:19;;;;;;;2.28;1.80;;;14.90;66.70;;;;;;4897486;29;20056;-40
2020/12/19 08:10:44;;;;;;;5.15;1.63;;;14.70;66.40;;;;;;4897602;29;20029;-41
2020/12/19 08:13:10;;;;;;;2.92;1.70;;;14.70;66.30;;;;;;4897091;29;20169;-40
2020/12/19 08:15:36;;;;;;;2.90;1.50;;;14.70;66.20;;;;;;4897536;29;20383;-40
2020/12/19 08:18:06;;;;;;;3.28;1.90;;;14.70;66.30;;;;;;4898645;29;20036;-40
2020/12/19 08:20:39;;;;;;;1.73;1.63;;;14.70;66.30;;;;;;4901193;29;20039;-40
2020/12/19 08:23:07;;;;;;;1.70;1.60;;;14.70;66.30;;;;;;4901455;29;20043;-42
2020/12/19 08:25:36;;;;;;;1.95;1.40;;;14.70;66.30;;;;;;4901463;29;20020;-40
2020/12/19 08:30:30;;;;;;;3.28;2.22;;;14.70;66.60;;;;;;4901106;29;20043;-40
2020/12/19 08:33:18;;;;;;;7.70;2.20;;;14.70;66.60;;;;;;4900909;29;20028;-41
2020/12/19 08:35:45;;;;;;;6.07;2.00;;;14.80;67.30;;;;;;4901292;29;20119;-40
2020/12/19 08:38:26;;;;;;;2.60;2.28;;;15.00;67.80;;;;;;4900651;29;20327;-40
2020/12/19 08:40:56;;;;;;;8.70;2.22;;;14.90;67.90;;;;;;4901138;29;20042;-40
2020/12/19 08:43:31;;;;;;;5.18;1.98;;;14.90;67.70;;;;;;4900948;29;20077;-39
2020/12/19 08:46:10;;;;;;;7.25;2.40;;;15.00;67.90;;;;;;4901039;29;20037;-39
2020/12/19 08:48:37;;;;;;;10.43;3.03;;;14.90;68.00;;;;;;4901129;29;20108;-37
2020/12/19 08:51:18;;;;;;;6.20;2.00;;;14.90;68.20;;;;;;4883651;29;20491;-39
2020/12/19 08:53:43;;;;;;;7.30;2.15;;;15.00;68.00;;;;;;4900595;29;20476;-39
2020/12/19 08:56:17;;;;;;;9.57;2.95;;;15.00;68.80;;;;;;4901002;29;20077;-40
2020/12/19 08:58:55;;;;;;;10.82;3.45;;;15.00;68.50;;;;;;4900810;29;20025;-40
2020/12/19 09:01:21;;;;;;;11.02;1.80;;;15.10;68.30;;;;;;4900857;29;20013;-39
2020/12/19 09:03:47;;;;;;;9.18;2.35;;;15.10;67.80;;;;;;4903292;28;20114;-39
2020/12/19 09:06:14;;;;;;;4.90;2.13;;;15.20;67.70;;;;;;4919582;29;20110;-44
2020/12/19 09:11:32;;;;;;;4.78;2.28;;;15.30;67.30;;;;;;4879008;29;20032;-59
2020/12/19 09:14:05;;;;;;;5.50;2.22;;;15.40;66.90;;;;;;4878938;29;20052;-55
2020/12/19 09:16:31;;;;;;;5.97;2.35;;;15.50;66.90;;;;;;4877746;29;20072;-54
2020/12/19 09:18:57;;;;;;;10.75;2.50;;;16.00;67.20;;;;;;4877587;29;20033;-37
2020/12/19 09:21:22;;;;;;;7.22;2.67;;;15.60;66.80;;;;;;4875578;29;20040;-48
2020/12/19 09:23:48;;;;;;;4.95;2.17;;;15.70;66.70;;;;;;4875371;29;20037;-55
2020/12/19 09:26:14;;;;;;;4.28;2.50;;;15.80;66.40;;;;;;4861242;29;20049;-55
2020/12/19 09:28:39;;;;;;;4.55;1.85;;;15.90;66.10;;;;;;4877127;29;20062;-55
2020/12/19 09:31:05;;;;;;;7.68;2.08;;;15.90;66.00;;;;;;4877386;29;20097;-53
2020/12/19 09:33:30;;;;;;;5.53;2.15;;;16.00;65.90;;;;;;4877441;29;20160;-54
2020/12/19 09:35:56;;;;;;;5.88;2.28;;;16.00;65.80;;;;;;4877593;29;20037;-56
2020/12/19 09:38:21;;;;;;;2.92;1.88;;;16.00;65.50;;;;;;4877229;29;20584;-52
2020/12/19 09:40:47;;;;;;;3.25;2.00;;;16.10;65.30;;;;;;4877352;29;20092;-56
2020/12/19 09:43:13;;;;;;;2.22;2.03;;;16.10;64.90;;;;;;4908206;29;20048;-55
2020/12/19 09:45:39;;;;;;;7.25;2.22;;;16.10;64.40;;;;;;4917295;29;20076;-55
2020/12/19 09:48:05;;;;;;;7.05;2.35;;;16.10;64.40;;;;;;4917326;29;20035;-53
2020/12/19 09:50:31;;;;;;;5.28;2.17;;;16.10;64.90;;;;;;4916831;29;20032;-52
2020/12/19 09:52:57;;;;;;;7.53;2.25;;;16.10;64.80;;;;;;4916218;29;20053;-53
2020/12/19 09:55:23;;;;;;;10.20;2.50;;;16.10;64.60;;;;;;4916503;29;20087;-52
2020/12/19 09:57:49;;;;;;;3.20;1.70;;;16.10;64.50;;;;;;4916796;29;20189;-52
2020/12/19 10:00:15;;;;;;;4.32;2.10;;;16.00;64.80;;;;;;4917189;29;20636;-53
2020/12/19 10:02:43;;;;;;;12.93;1.80;;;16.10;64.70;;;;;;4917243;29;20039;-54
2020/12/19 10:05:15;;;;;;;3.72;1.95;;;16.10;64.70;;;;;;4917930;28;20056;-50
2020/12/19 10:07:40;;;;;;;9.32;2.03;;;16.20;64.90;;;;;;4899808;29;20032;-53
2020/12/19 10:10:07;;;;;;;2.97;1.52;;;16.20;65.30;;;;;;4916814;29;20028;-52
2020/12/19 10:12:33;;;;;;;12.73;2.00;;;16.10;65.20;;;;;;4916798;29;20482;-54
2020/12/19 10:14:59;;;;;;;3.13;2.03;;;16.20;65.30;;;;;;4916505;29;20487;-50
2020/12/19 10:17:25;;;;;;;3.22;1.73;;;16.20;65.00;;;;;;4916778;29;20034;-50
2020/12/19 10:19:50;;;;;;;4.22;2.00;;;16.20;65.00;;;;;;4899381;29;20064;-53
2020/12/19 10:22:17;;;;;;;7.38;1.90;;;16.20;64.80;;;;;;4916796;29;20027;-47
2020/12/19 10:24:42;;;;;;;3.72;1.80;;;16.20;65.00;;;;;;4916696;29;20115;-52
2020/12/19 10:27:08;;;;;;;5.65;1.77;;;16.20;65.00;;;;;;4916711;29;20123;-54
2020/12/19 10:29:34;;;;;;;4.95;1.90;;;16.20;65.00;;;;;;4916357;29;20515;-56
2020/12/19 10:32:06;;;;;;;2.97;1.55;;;16.20;65.00;;;;;;4916331;29;20535;-53
2020/12/19 10:34:31;;;;;;;5.00;1.70;;;16.20;65.00;;;;;;4916621;29;20035;-50
2020/12/19 10:36:57;;;;;;;4.82;1.88;;;16.20;65.30;;;;;;4899039;29;20028;-53
2020/12/19 10:39:22;;;;;;;3.08;1.67;;;16.20;65.50;;;;;;4916460;29;20432;-50
2020/12/19 10:41:49;;;;;;;8.70;1.85;;;16.20;65.30;;;;;;4915625;29;20028;-53
2020/12/19 10:44:16;;;;;;;5.60;1.92;;;16.20;66.00;;;;;;4916452;29;20375;-53
2020/12/19 10:46:41;;;;;;;6.78;2.20;;;16.20;66.10;;;;;;4916116;29;20021;-52
2020/12/19 10:49:07;;;;;;;2.65;1.92;;;16.20;65.70;;;;;;4915964;29;20035;-51
2020/12/19 10:51:32;;;;;;;6.50;1.63;;;16.20;66.30;;;;;;4915959;29;20024;-51
2020/12/19 10:53:58;;;;;;;3.22;1.90;;;16.30;66.70;;;;;;4915921;29;20028;-53
2020/12/19 10:56:24;;;;;;;7.80;1.88;;;16.30;67.90;;;;;;4916209;29;20028;-54
2020/12/19 10:58:50;;;;;;;3.85;2.15;;;16.30;68.10;;;;;;4916229;29;20032;-54
2020/12/19 11:01:15;;;;;;;9.95;1.88;;;16.40;68.60;;;;;;4915717;29;20028;-52
2020/12/19 11:03:42;;;;;;;6.47;1.90;;;16.20;68.60;;;;;;4915891;29;20455;-54
2020/12/19 11:06:17;;;;;;;2.60;1.55;;;16.30;68.40;;;;;;4916203;28;20056;-53
2020/12/19 11:08:42;;;;;;;2.75;1.58;;;16.20;68.40;;;;;;4915726;29;20025;-53
2020/12/19 11:11:08;;;;;;;4.95;1.90;;;16.20;68.60;;;;;;4915366;29;20044;-53
2020/12/19 11:13:34;;;;;;;3.45;1.58;;;16.20;68.50;;;;;;4915483;29;20024;-54
2020/12/19 11:16:00;;;;;;;2.28;1.90;;;16.10;68.00;;;;;;4916009;29;20088;-51
2020/12/19 11:18:25;;;;;;;4.20;1.65;;;16.10;68.30;;;;;;4915820;29;20385;-51
2020/12/19 11:20:51;;;;;;;5.60;1.70;;;16.10;68.40;;;;;;4915424;29;20156;-54
2020/12/19 11:23:17;;;;;;;2.25;1.60;;;16.00;68.20;;;;;;4915146;29;20024;-50
2020/12/19 11:25:42;;;;;;;2.03;1.90;;;15.90;68.10;;;;;;4916508;29;20028;-52
2020/12/19 11:28:08;;;;;;;3.50;1.90;;;15.90;68.20;;;;;;4916702;29;20024;-52
2020/12/19 11:30:33;;;;;;;2.08;1.80;;;16.00;68.20;;;;;;4916645;29;20102;-54
2020/12/19 11:32:59;;;;;;;3.15;2.03;;;15.90;68.00;;;;;;4916952;29;20085;-54
2020/12/19 11:35:24;;;;;;;3.50;2.40;;;15.90;68.20;;;;;;4916691;29;20092;-53
2020/12/19 11:37:50;;;;;;;4.05;2.63;;;15.90;68.20;;;;;;4916729;29;20075;-50
2020/12/19 11:40:15;;;;;;;5.47;2.70;;;15.90;68.10;;;;;;4916723;29;20055;-52
2020/12/19 11:42:41;;;;;;;3.80;2.58;;;15.90;68.20;;;;;;4916691;29;20028;-54
2020/12/19 11:45:06;;;;;;;5.30;2.58;;;15.80;68.20;;;;;;4916733;29;20066;-51
2020/12/19 11:47:32;;;;;;;4.05;2.92;;;15.80;68.40;;;;;;4916715;29;20020;-55
2020/12/19 11:49:58;;;;;;;6.82;3.17;;;15.70;68.50;;;;;;4916896;29;20466;-52
2020/12/19 11:52:23;;;;;;;6.43;3.08;;;15.70;68.60;;;;;;4916333;29;20439;-55
2020/12/19 11:54:49;;;;;;;4.97;2.97;;;15.70;68.70;;;;;;4899261;29;20101;-51
2020/12/19 11:57:14;;;;;;;5.30;3.10;;;15.70;68.60;;;;;;4916429;29;20030;-53
2020/12/19 11:59:40;;;;;;;5.13;3.22;;;15.70;68.70;;;;;;4916441;29;20028;-55
2020/12/19 12:02:06;;;;;;;3.72;2.72;;;15.70;68.70;;;;;;4916595;29;20063;-55
2020/12/19 12:04:31;;;;;;;5.50;3.20;;;15.60;68.80;;;;;;4916900;29;20052;-52
2020/12/19 12:06:57;;;;;;;5.93;3.15;;;15.60;68.90;;;;;;4915997;29;20021;-53
2020/12/19 12:09:22;;;;;;;4.63;2.72;;;15.60;69.10;;;;;;4916505;29;20028;-55
2020/12/19 12:11:48;;;;;;;4.68;2.60;;;15.60;69.00;;;;;;4916141;29;20060;-53
2020/12/19 12:14:13;;;;;;;4.38;2.60;;;15.60;69.10;;;;;;4916409;29;20036;-53
2020/12/19 12:16:39;;;;;;;4.55;3.00;;;15.50;69.10;;;;;;4916300;29;20024;-53
2020/12/19 12:19:05;;;;;;;4.40;2.70;;;15.60;69.30;;;;;;4916545;29;20609;-55
2020/12/19 12:21:38;;;;;;;3.72;2.53;;;15.60;69.40;;;;;;4916328;29;20021;-51
2020/12/19 12:24:05;;;;;;;4.55;2.63;;;15.60;69.50;;;;;;4916078;29;20492;-51
2020/12/19 12:26:31;;;;;;;2.60;2.28;;;15.60;69.70;;;;;;4916293;29;20032;-52
2020/12/19 12:28:58;;;;;;;2.83;2.25;;;15.60;69.90;;;;;;4916083;29;20035;-55
2020/12/19 12:31:31;;;;;;;2.67;2.40;;;15.60;70.20;;;;;;4916538;29;20354;-53
2020/12/19 12:33:57;;;;;;;5.05;2.30;;;15.60;69.90;;;;;;4916346;29;20072;-50
2020/12/19 12:36:25;;;;;;;2.95;2.13;;;15.60;70.30;;;;;;4916220;29;20091;-52
2020/12/19 12:38:51;;;;;;;2.53;2.30;;;15.60;71.50;;;;;;4916146;29;20032;-49
2020/12/19 12:41:17;;;;;;;3.25;1.80;;;15.70;72.40;;;;;;4963354;23;20046;-38
2020/12/19 12:43:42;;;;;;;2.80;2.15;;;15.80;72.60;;;;;;4972689;23;20401;-36
2020/12/19 12:46:09;;;;;;;3.70;2.45;;;15.70;73.10;;;;;;4972610;28;20023;-36
2020/12/19 12:48:35;;;;;;;5.18;2.17;;;15.80;73.50;;;;;;4972169;28;20031;-36
2020/12/19 12:51:01;;;;;;;4.18;1.90;;;15.80;74.70;;;;;;4972275;28;20027;-36
2020/12/19 12:53:26;;;;;;;4.28;1.58;;;15.80;74.80;;;;;;4973119;28;20489;-36
2020/12/19 12:55:52;;;;;;;3.35;2.17;;;16.90;75.50;;;;;;4973469;28;20027;-36
2020/12/19 12:58:17;;;;;;;2.45;2.22;;;15.80;75.00;;;;;;4973546;28;20212;-36
2020/12/19 13:00:43;;;;;;;4.82;2.38;;;15.80;74.90;;;;;;4972878;28;20035;-36